Weather at Lac Agile (Mascouche) Airport

Public forecast

Using degrees Celsius for public forecast. Weather courtesy of forecast.io.

Closest aviation weather report (METAR) to Lac Agile (Mascouche) Airport

Closest report is Montreal International (Mirabel) Airport, 18.1 nm (33.5 km) WSW.

2024/05/22 07:00 (retrieved 54 minutes ago)

CYMX 220700Z 00000KT 25SM SCT066 BKN250 15/15 A2982 RMK AC3CI2 SLP099 DENSITY ALT 500FT

Closest aviation forecast (TAF) to Lac Agile (Mascouche) Airport

Closest forecast is Montreal International (Mirabel) Airport, 18.1 nm (33.5 km) WSW.

2024/05/22 06:42 (retrieved 1 hour ago)

TAF TAF CYMX 220540Z 2206/2306 VRB03KT P6SM BKN080 TEMPO 2206/2212 5SM BR SCT080 FM221200 VRB03KT P6SM BKN010 BECMG 2212/2214 SCT012 FM221600 23007KT P6SM SKC FM222200 25007KT P6SM -SHRA BKN040 PROB30 2222/2301 VRB15G30KT 2SM TSRA BR BKN020 OVC050CB FM230100 17008KT 4SM -SHRA BKN030 PROB30 2301/2304 VRB20G35KT 1SM +TSRA BKN020 OVC040CB FM230400 24012G22KT P6SM BKN030 PROB30 2304/2306 4SM TSRA BR BKN030CB RMK NXT FCST BY 221200Z